Time;durP1;ratioP1;P1;durP2;ratioP2;P2;SDS_P1;SDS_P2;PMS_P1;PMS_P2;Temp;Humidity;BMP_temperature;BMP_pressure;BME280_temperature;BME280_humidity;BME280_pressure;Samples;Min_cycle;Max_cycle;Signal;HPM_P1;HPM_P2
2023/06/28 00:01:14;;;;;;;3.67;1.13;;;22.30;63.20;;;;;;4999396;28;20088;-79
2023/06/28 00:03:40;;;;;;;3.40;0.90;;;22.30;62.50;;;;;;5016294;28;20052;-80
2023/06/28 00:06:05;;;;;;;0.95;0.65;;;22.30;63.10;;;;;;4998589;28;20026;-81
2023/06/28 00:08:31;;;;;;;3.97;1.20;;;22.30;62.80;;;;;;4998903;28;20030;-80
2023/06/28 00:10:56;;;;;;;5.60;1.05;;;22.20;62.70;;;;;;5015706;28;20030;-80
2023/06/28 00:13:22;;;;;;;1.45;0.77;;;22.20;62.80;;;;;;4998928;28;20061;-80
2023/06/28 00:15:48;;;;;;;3.53;0.75;;;22.20;62.90;;;;;;5015417;28;20030;-80
2023/06/28 00:18:14;;;;;;;3.33;0.90;;;22.20;62.90;;;;;;4999017;28;20048;-79
2023/06/28 00:20:40;;;;;;;2.80;0.90;;;22.20;63.10;;;;;;4998832;28;20542;-80
2023/06/28 00:23:06;;;;;;;4.65;1.10;;;22.20;63.50;;;;;;5015500;28;20079;-80
2023/06/28 00:25:32;;;;;;;2.83;1.05;;;22.20;63.30;;;;;;5016285;28;20026;-80
2023/06/28 00:27:58;;;;;;;3.08;1.00;;;22.20;63.40;;;;;;4997437;28;20026;-81
2023/06/28 00:30:23;;;;;;;1.88;0.80;;;22.20;63.30;;;;;;5015869;28;20049;-80
2023/06/28 00:32:49;;;;;;;5.07;1.00;;;22.20;64.00;;;;;;5015517;28;20030;-80
2023/06/28 00:35:14;;;;;;;2.17;0.80;;;22.20;64.40;;;;;;4998536;28;20042;-80
2023/06/28 00:37:41;;;;;;;2.78;0.90;;;22.20;64.30;;;;;;4998832;28;20115;-80
2023/06/28 00:40:08;;;;;;;3.55;1.17;;;22.10;64.40;;;;;;4998034;28;20030;-80
2023/06/28 00:42:34;;;;;;;2.70;0.90;;;22.10;64.10;;;;;;5016436;28;20022;-81
2023/06/28 00:45:00;;;;;;;2.97;1.20;;;22.10;64.30;;;;;;5015676;28;20113;-79
2023/06/28 00:47:27;;;;;;;1.55;0.80;;;22.10;64.50;;;;;;5016301;28;20033;-80
2023/06/28 00:49:53;;;;;;;3.00;0.90;;;22.00;64.90;;;;;;4998016;28;20046;-79
2023/06/28 00:52:20;;;;;;;1.95;0.95;;;22.00;64.40;;;;;;5016197;28;20066;-80
2023/06/28 00:54:45;;;;;;;2.47;0.88;;;22.10;64.30;;;;;;4998384;28;20033;-80
2023/06/28 00:57:11;;;;;;;3.60;1.00;;;22.10;64.30;;;;;;4998219;28;20470;-80
2023/06/28 00:59:37;;;;;;;2.22;0.77;;;22.10;64.10;;;;;;4998705;28;20026;-79
2023/06/28 01:02:03;;;;;;;2.08;0.70;;;22.10;64.10;;;;;;5015609;28;20029;-79
2023/06/28 01:04:28;;;;;;;1.65;0.80;;;22.10;64.10;;;;;;5015792;28;20479;-80
2023/06/28 01:06:59;;;;;;;2.55;1.13;;;22.10;63.80;;;;;;5015311;28;20034;-80
2023/06/28 01:09:26;;;;;;;4.47;0.90;;;22.10;64.50;;;;;;4998580;28;20113;-80
2023/06/28 01:11:54;;;;;;;4.07;0.95;;;22.00;64.30;;;;;;4997852;28;20533;-80
2023/06/28 01:14:22;;;;;;;4.03;0.90;;;21.90;65.00;;;;;;4998544;28;20483;-80
2023/06/28 01:16:54;;;;;;;3.08;1.20;;;22.00;65.50;;;;;;4998511;28;20022;-80
2023/06/28 01:19:25;;;;;;;2.83;1.05;;;21.90;65.60;;;;;;5015349;28;20094;-80
2023/06/28 01:22:02;;;;;;;3.33;0.82;;;21.80;65.40;;;;;;5014991;28;20025;-79
2023/06/28 01:24:28;;;;;;;2.25;0.95;;;21.90;65.00;;;;;;4998085;28;20479;-80
2023/06/28 01:26:58;;;;;;;5.32;1.38;;;21.90;65.30;;;;;;4997209;28;20026;-80
2023/06/28 01:29:24;;;;;;;5.13;1.10;;;21.90;65.40;;;;;;4997803;28;20054;-80
2023/06/28 01:31:55;;;;;;;3.20;1.20;;;21.90;67.10;;;;;;4997512;28;20036;-79
2023/06/28 01:34:26;;;;;;;5.65;0.95;;;21.80;67.20;;;;;;5014712;28;20033;-80
2023/06/28 01:36:53;;;;;;;6.57;1.02;;;21.80;67.60;;;;;;4997412;28;20034;-80
2023/06/28 01:39:19;;;;;;;2.60;0.98;;;21.90;67.90;;;;;;4997405;28;20037;-79
2023/06/28 01:41:45;;;;;;;3.53;0.90;;;21.90;69.40;;;;;;4997674;28;20057;-79
2023/06/28 01:44:12;;;;;;;3.33;1.00;;;21.80;72.40;;;;;;4997220;28;20038;-81
2023/06/28 01:46:39;;;;;;;5.60;1.45;;;21.70;74.00;;;;;;5015234;28;20026;-80
2023/06/28 01:49:07;;;;;;;4.30;1.10;;;21.50;74.90;;;;;;4996419;28;20376;-80
2023/06/28 01:51:34;;;;;;;6.47;1.10;;;21.40;75.80;;;;;;5014966;28;20136;-80
2023/06/28 01:54:00;;;;;;;2.50;1.00;;;21.40;76.40;;;;;;4996917;28;20036;-79
2023/06/28 01:56:26;;;;;;;2.58;1.20;;;21.30;77.00;;;;;;4997482;28;20065;-80
2023/06/28 01:58:51;;;;;;;4.63;1.30;;;21.30;77.00;;;;;;4997182;28;20482;-80
2023/06/28 02:01:17;;;;;;;4.30;1.20;;;21.30;77.70;;;;;;4997385;28;20489;-80
2023/06/28 02:03:42;;;;;;;4.13;1.33;;;21.30;77.70;;;;;;4997282;28;20127;-80
2023/06/28 02:06:08;;;;;;;4.63;1.15;;;21.20;77.90;;;;;;5014436;28;20039;-80
2023/06/28 02:08:34;;;;;;;5.30;1.13;;;21.10;78.30;;;;;;4997366;28;20022;-80
2023/06/28 02:10:59;;;;;;;3.35;1.05;;;21.10;79.70;;;;;;4996853;28;20026;-80
2023/06/28 02:13:25;;;;;;;2.33;1.17;;;21.10;80.20;;;;;;4997290;28;20386;-81
2023/06/28 02:15:51;;;;;;;2.72;1.27;;;21.00;79.50;;;;;;4996999;28;20054;-81
2023/06/28 02:18:17;;;;;;;4.47;1.40;;;21.00;80.20;;;;;;4996982;28;20026;-80
2023/06/28 02:20:45;;;;;;;6.75;1.02;;;21.00;80.00;;;;;;4997102;28;20034;-80
2023/06/28 02:23:11;;;;;;;4.20;1.20;;;21.00;80.40;;;;;;5013557;28;20029;-80
2023/06/28 02:25:37;;;;;;;2.70;1.17;;;20.90;79.50;;;;;;4996716;28;20117;-80
2023/06/28 02:28:02;;;;;;;3.53;1.08;;;20.90;78.90;;;;;;4996668;28;20054;-80
2023/06/28 02:30:28;;;;;;;3.67;1.25;;;20.90;78.00;;;;;;4997089;28;20458;-80
2023/06/28 02:32:53;;;;;;;4.50;1.20;;;20.80;77.20;;;;;;4996655;28;20018;-80
2023/06/28 02:35:19;;;;;;;3.08;1.00;;;20.70;76.60;;;;;;5014322;28;20037;-81
2023/06/28 02:37:45;;;;;;;4.75;1.10;;;20.80;76.90;;;;;;5014490;28;20494;-81
2023/06/28 02:40:13;;;;;;;3.65;1.08;;;20.80;76.20;;;;;;5014160;28;20030;-80
2023/06/28 02:42:38;;;;;;;5.13;1.10;;;20.80;75.30;;;;;;5014209;28;20026;-80
2023/06/28 02:45:04;;;;;;;6.97;1.50;;;20.80;75.90;;;;;;4996100;28;20041;-80
2023/06/28 02:47:30;;;;;;;3.83;1.23;;;20.80;75.00;;;;;;4996420;28;20057;-80
2023/06/28 02:49:55;;;;;;;4.88;1.17;;;20.80;75.90;;;;;;5013145;28;20127;-81
2023/06/28 02:52:21;;;;;;;2.67;1.00;;;20.80;76.30;;;;;;5013345;28;20374;-80
2023/06/28 02:54:46;;;;;;;3.53;1.13;;;20.80;77.10;;;;;;5013976;28;20029;-80
2023/06/28 02:57:12;;;;;;;2.90;1.10;;;20.80;77.90;;;;;;4996410;28;20629;-80
2023/06/28 02:59:37;;;;;;;4.32;1.20;;;20.80;77.90;;;;;;5013973;28;20530;-80
2023/06/28 03:02:04;;;;;;;5.65;1.23;;;20.80;77.10;;;;;;5013369;28;20033;-80
2023/06/28 03:04:30;;;;;;;2.33;1.35;;;20.80;75.70;;;;;;4996368;28;20045;-80
2023/06/28 03:06:56;;;;;;;3.55;1.10;;;20.80;75.60;;;;;;5013423;28;20073;-80
2023/06/28 03:09:22;;;;;;;3.40;1.08;;;20.80;77.00;;;;;;4996536;28;20463;-79
2023/06/28 03:11:47;;;;;;;2.65;1.10;;;20.70;77.30;;;;;;4996524;28;20022;-79
2023/06/28 03:14:13;;;;;;;4.40;1.13;;;20.70;77.60;;;;;;4995753;28;20191;-79
2023/06/28 03:16:39;;;;;;;3.28;1.10;;;20.70;77.60;;;;;;4996347;28;20033;-80
2023/06/28 03:19:08;;;;;;;2.28;1.00;;;20.70;77.80;;;;;;5013306;28;20033;-80
2023/06/28 03:21:33;;;;;;;9.93;1.30;;;20.80;77.60;;;;;;4996669;28;20033;-81
2023/06/28 03:23:59;;;;;;;2.30;1.40;;;20.80;77.60;;;;;;4995927;28;20038;-80
2023/06/28 03:26:25;;;;;;;2.88;1.00;;;20.70;78.80;;;;;;4996730;28;20029;-81
2023/06/28 03:28:50;;;;;;;3.08;1.05;;;20.70;79.30;;;;;;5013823;28;20032;-81
2023/06/28 03:31:16;;;;;;;7.38;1.30;;;20.70;79.10;;;;;;5013529;28;20440;-81
2023/06/28 03:33:42;;;;;;;5.13;1.60;;;20.70;78.90;;;;;;5013924;28;20101;-81
2023/06/28 03:36:08;;;;;;;5.25;1.60;;;20.70;79.10;;;;;;4996006;28;20120;-81
2023/06/28 03:38:33;;;;;;;5.00;1.35;;;20.70;79.60;;;;;;4996225;28;20026;-81
2023/06/28 03:40:59;;;;;;;2.97;1.40;;;20.70;79.10;;;;;;4996181;28;20092;-81
2023/06/28 03:43:24;;;;;;;2.70;1.27;;;20.70;79.40;;;;;;4996647;28;20105;-81
2023/06/28 03:45:50;;;;;;;3.55;1.42;;;20.80;79.50;;;;;;4996643;28;20034;-81
2023/06/28 03:48:18;;;;;;;2.13;1.30;;;20.70;79.80;;;;;;4986868;28;20105;-80
2023/06/28 03:50:43;;;;;;;3.28;1.25;;;20.70;79.70;;;;;;4973623;28;20031;-79
2023/06/28 03:53:09;;;;;;;4.82;1.50;;;20.70;79.50;;;;;;4973852;28;20085;-80
2023/06/28 03:55:34;;;;;;;3.75;1.30;;;20.70;79.20;;;;;;4974263;28;20456;-79
2023/06/28 03:58:00;;;;;;;5.03;1.20;;;20.70;78.60;;;;;;4973700;28;20027;-80
2023/06/28 04:00:25;;;;;;;3.55;1.30;;;20.70;79.30;;;;;;4974308;28;20109;-79
2023/06/28 04:02:51;;;;;;;5.32;1.50;;;20.80;80.50;;;;;;4975067;28;20023;-79
2023/06/28 04:05:17;;;;;;;5.43;1.38;;;20.70;81.40;;;;;;4976118;28;20049;-79
2023/06/28 04:07:42;;;;;;;3.83;1.40;;;20.60;82.60;;;;;;4977728;28;20027;-79
2023/06/28 04:10:08;;;;;;;3.75;1.45;;;20.60;84.40;;;;;;4975979;28;20432;-79
2023/06/28 04:12:34;;;;;;;7.40;1.42;;;20.60;84.90;;;;;;4977747;28;20054;-79
2023/06/28 04:15:01;;;;;;;5.10;1.42;;;20.60;85.40;;;;;;4975609;28;20073;-80
2023/06/28 04:17:26;;;;;;;2.83;1.45;;;20.50;86.40;;;;;;4977280;28;20027;-79
2023/06/28 04:19:52;;;;;;;6.63;1.30;;;20.50;86.90;;;;;;4977178;28;20065;-79
2023/06/28 04:22:17;;;;;;;2.55;1.33;;;20.50;87.50;;;;;;4975614;28;20022;-79
2023/06/28 04:24:43;;;;;;;6.40;1.55;;;20.50;88.20;;;;;;4976554;28;20041;-79
2023/06/28 04:27:09;;;;;;;2.50;1.48;;;20.50;88.30;;;;;;4976980;28;20034;-79
2023/06/28 04:29:34;;;;;;;2.65;1.42;;;20.50;88.60;;;;;;4976243;28;20033;-79
2023/06/28 04:32:02;;;;;;;5.05;1.25;;;20.60;88.70;;;;;;4976557;28;20085;-80
2023/06/28 04:34:27;;;;;;;3.38;1.48;;;20.70;88.50;;;;;;4975758;28;20031;-79
2023/06/28 04:36:55;;;;;;;3.05;1.38;;;20.70;88.40;;;;;;4975704;28;20038;-79
2023/06/28 04:39:21;;;;;;;4.25;1.20;;;20.70;88.20;;;;;;4975034;28;20038;-79
2023/06/28 04:41:47;;;;;;;4.30;1.85;;;20.70;86.40;;;;;;4976079;28;20027;-79
2023/06/28 04:44:13;;;;;;;2.70;1.60;;;20.80;85.30;;;;;;4975344;28;20034;-79
2023/06/28 04:46:39;;;;;;;2.22;1.23;;;20.80;85.20;;;;;;4975865;28;20038;-79
2023/06/28 04:49:04;;;;;;;2.70;1.13;;;20.90;82.60;;;;;;5000688;28;20054;-80
2023/06/28 04:51:30;;;;;;;4.32;1.98;;;20.90;82.10;;;;;;4998357;28;20034;-79
2023/06/28 04:53:55;;;;;;;5.60;1.33;;;20.90;80.80;;;;;;4998456;28;20037;-80
2023/06/28 04:56:21;;;;;;;3.10;1.20;;;20.90;80.80;;;;;;4997908;28;20022;-80
2023/06/28 04:58:46;;;;;;;4.03;1.58;;;20.90;80.90;;;;;;5015882;28;20076;-79
2023/06/28 05:01:12;;;;;;;4.90;2.22;;;21.00;81.60;;;;;;5015337;28;20117;-80
2023/06/28 05:03:40;;;;;;;4.25;1.55;;;21.00;81.60;;;;;;5015467;28;20373;-79
2023/06/28 05:06:06;;;;;;;4.50;1.50;;;21.00;82.10;;;;;;5015149;28;20105;-79
2023/06/28 05:08:35;;;;;;;2.58;1.45;;;20.90;82.70;;;;;;4998043;28;20070;-79
2023/06/28 05:11:03;;;;;;;5.55;1.50;;;21.00;83.60;;;;;;5014963;28;20069;-79
2023/06/28 05:13:29;;;;;;;5.75;2.25;;;21.00;84.10;;;;;;5015433;28;20030;-79
2023/06/28 05:15:55;;;;;;;4.85;1.55;;;21.00;84.90;;;;;;5013036;28;20084;-78
2023/06/28 05:18:20;;;;;;;4.30;1.60;;;21.00;85.30;;;;;;5010683;28;20028;-82
2023/06/28 05:20:46;;;;;;;3.35;1.60;;;21.10;85.00;;;;;;5027070;28;20025;-80
2023/06/28 05:23:23;;;;;;;5.53;1.50;;;21.10;84.30;;;;;;4996444;28;20022;-81
2023/06/28 05:25:49;;;;;;;2.78;1.10;;;21.10;83.80;;;;;;5012841;28;20029;-81
2023/06/28 05:28:15;;;;;;;4.03;1.30;;;21.10;83.60;;;;;;4996902;28;20037;-81
2023/06/28 05:30:42;;;;;;;5.20;1.60;;;21.10;84.00;;;;;;5021517;28;20470;-79
2023/06/28 05:33:09;;;;;;;4.28;1.27;;;21.10;83.80;;;;;;5023663;28;20509;-81
2023/06/28 05:35:36;;;;;;;2.92;1.02;;;21.10;82.90;;;;;;4996757;28;20034;-81
2023/06/28 05:38:03;;;;;;;4.45;1.15;;;21.10;83.00;;;;;;5014454;28;20026;-80
2023/06/28 05:40:30;;;;;;;3.45;1.42;;;21.10;82.90;;;;;;4997257;28;20050;-80
2023/06/28 05:42:57;;;;;;;7.68;1.45;;;21.10;82.90;;;;;;5014758;28;20073;-80
2023/06/28 05:45:24;;;;;;;3.10;1.40;;;21.10;82.30;;;;;;5005640;28;20041;-81
2023/06/28 05:47:50;;;;;;;2.15;1.33;;;21.20;82.10;;;;;;5004780;28;20049;-79
2023/06/28 05:50:16;;;;;;;3.97;1.50;;;21.30;81.70;;;;;;5016625;28;20049;-81
2023/06/28 05:52:44;;;;;;;4.82;1.67;;;21.30;81.70;;;;;;5010045;28;20026;-82
2023/06/28 05:55:10;;;;;;;4.45;1.25;;;21.30;81.70;;;;;;5014446;28;20026;-80
2023/06/28 05:57:37;;;;;;;4.95;1.30;;;21.30;81.70;;;;;;5011071;28;20029;-79
2023/06/28 06:00:08;;;;;;;6.78;1.30;;;21.30;82.00;;;;;;4998282;28;20033;-81
2023/06/28 06:02:34;;;;;;;5.80;1.25;;;21.40;82.10;;;;;;5014329;28;20018;-79
2023/06/28 06:05:01;;;;;;;4.72;1.50;;;21.40;82.50;;;;;;5005554;28;20061;-78
2023/06/28 06:07:27;;;;;;;3.15;1.58;;;21.40;83.30;;;;;;5016929;28;20083;-81
2023/06/28 06:09:56;;;;;;;6.20;1.45;;;21.40;83.40;;;;;;5000266;28;20030;-82
2023/06/28 06:12:23;;;;;;;2.58;1.33;;;21.40;83.90;;;;;;4996730;28;20025;-81
2023/06/28 06:14:50;;;;;;;4.75;1.30;;;21.50;84.00;;;;;;4996890;28;20040;-78
2023/06/28 06:17:16;;;;;;;2.50;1.30;;;21.40;84.20;;;;;;5013691;28;20458;-78
2023/06/28 06:19:42;;;;;;;3.00;1.50;;;21.40;84.30;;;;;;5017771;28;20105;-79
2023/06/28 06:22:08;;;;;;;2.05;1.30;;;21.40;83.70;;;;;;5011503;28;20116;-79
2023/06/28 06:24:33;;;;;;;4.03;1.20;;;21.50;83.20;;;;;;5001509;28;20475;-77
2023/06/28 06:26:59;;;;;;;4.07;1.17;;;21.50;83.10;;;;;;5023326;28;20041;-79
2023/06/28 06:29:24;;;;;;;5.10;1.77;;;21.50;81.70;;;;;;4995653;28;20493;-78
2023/06/28 06:31:50;;;;;;;2.83;1.33;;;21.50;81.30;;;;;;5013908;28;20522;-77
2023/06/28 06:34:15;;;;;;;5.97;1.40;;;21.50;81.50;;;;;;5016406;28;20030;-78
2023/06/28 06:36:41;;;;;;;2.80;1.33;;;21.50;81.60;;;;;;5026416;28;20032;-78
2023/06/28 06:39:06;;;;;;;3.28;1.50;;;21.60;81.20;;;;;;5023416;28;20026;-80
2023/06/28 06:41:32;;;;;;;1.63;1.40;;;21.50;81.20;;;;;;5015552;28;20057;-79
2023/06/28 06:43:58;;;;;;;6.78;1.60;;;21.60;81.30;;;;;;4997991;28;20034;-79
2023/06/28 06:46:24;;;;;;;4.03;1.27;;;21.60;81.50;;;;;;4994834;28;20459;-80
2023/06/28 06:48:50;;;;;;;4.47;1.83;;;21.60;81.70;;;;;;4995541;28;20450;-78
2023/06/28 06:51:16;;;;;;;2.58;1.40;;;21.70;80.80;;;;;;5006381;28;20021;-78
2023/06/28 06:53:41;;;;;;;6.22;1.55;;;21.70;80.90;;;;;;5000445;28;20391;-78
2023/06/28 06:56:07;;;;;;;4.57;1.70;;;21.70;81.20;;;;;;5011300;28;20033;-76
2023/06/28 06:58:33;;;;;;;5.03;1.63;;;21.80;80.90;;;;;;4995859;28;20124;-78
2023/06/28 07:00:58;;;;;;;4.50;1.30;;;21.80;80.90;;;;;;4995552;28;20383;-79
2023/06/28 07:03:27;;;;;;;4.28;1.52;;;21.90;80.50;;;;;;5013285;28;20076;-80
2023/06/28 07:05:53;;;;;;;7.47;1.55;;;21.90;79.80;;;;;;4996235;28;20054;-79
2023/06/28 07:08:18;;;;;;;7.10;1.50;;;21.90;79.60;;;;;;4999361;28;20056;-78
2023/06/28 07:10:44;;;;;;;7.72;1.67;;;22.00;79.70;;;;;;5015654;28;20106;-80
2023/06/28 07:13:14;;;;;;;9.07;2.53;;;22.00;79.10;;;;;;5004451;28;20026;-80
2023/06/28 07:15:39;;;;;;;4.40;1.50;;;22.00;78.90;;;;;;5004741;28;20030;-80
2023/06/28 07:18:05;;;;;;;3.40;1.50;;;22.10;78.80;;;;;;5028676;28;20519;-80
2023/06/28 07:20:31;;;;;;;6.13;1.50;;;22.10;78.40;;;;;;5000684;28;20073;-78
2023/06/28 07:22:56;;;;;;;3.97;1.40;;;22.10;78.50;;;;;;5006096;28;20471;-77
2023/06/28 07:25:22;;;;;;;3.25;1.20;;;22.20;78.70;;;;;;5024002;28;20363;-79
2023/06/28 07:27:47;;;;;;;5.05;1.60;;;22.20;78.60;;;;;;4999177;28;20111;-78
2023/06/28 07:30:13;;;;;;;5.32;1.48;;;22.20;77.90;;;;;;5010768;28;20014;-77
2023/06/28 07:32:39;;;;;;;4.93;1.73;;;22.20;78.40;;;;;;5001405;28;20033;-78
2023/06/28 07:35:05;;;;;;;4.63;1.63;;;22.20;78.70;;;;;;5004616;28;20137;-80
2023/06/28 07:37:30;;;;;;;4.60;1.40;;;22.40;78.70;;;;;;5026156;28;20029;-78
2023/06/28 07:39:59;;;;;;;6.18;1.30;;;22.40;79.00;;;;;;5001625;28;20379;-79
2023/06/28 07:42:26;;;;;;;2.00;1.70;;;22.40;79.10;;;;;;5002877;28;20682;-78
2023/06/28 07:44:52;;;;;;;4.95;1.70;;;22.40;78.70;;;;;;5018835;28;20040;-77
2023/06/28 07:47:18;;;;;;;3.47;1.30;;;22.40;78.90;;;;;;5017800;28;20025;-77
2023/06/28 07:49:44;;;;;;;4.15;1.77;;;22.50;79.20;;;;;;5003231;28;20057;-77
2023/06/28 07:52:12;;;;;;;6.18;1.50;;;22.50;79.10;;;;;;4998603;28;20026;-81
2023/06/28 07:54:38;;;;;;;4.88;1.80;;;22.50;78.60;;;;;;5004947;28;20033;-79
2023/06/28 07:57:04;;;;;;;5.03;1.80;;;22.50;78.90;;;;;;5025770;28;20032;-79
2023/06/28 07:59:29;;;;;;;6.97;1.92;;;22.50;78.50;;;;;;5016090;28;20390;-79
2023/06/28 08:01:55;;;;;;;5.10;1.60;;;22.50;78.70;;;;;;5017058;28;20030;-79
2023/06/28 08:04:22;;;;;;;4.72;1.85;;;22.60;79.40;;;;;;5013412;28;20080;-78
2023/06/28 08:06:48;;;;;;;4.65;1.70;;;22.50;80.80;;;;;;5024128;28;20025;-79
2023/06/28 08:09:13;;;;;;;3.30;1.65;;;22.50;80.10;;;;;;5035402;28;20030;-77
2023/06/28 08:11:39;;;;;;;3.53;1.92;;;22.50;78.60;;;;;;5017948;28;20489;-77
2023/06/28 08:14:05;;;;;;;8.02;1.83;;;22.60;78.30;;;;;;5033550;28;20029;-77
2023/06/28 08:16:31;;;;;;;3.97;1.70;;;22.60;77.70;;;;;;4998301;28;20094;-78
2023/06/28 08:18:57;;;;;;;6.88;2.33;;;22.70;78.20;;;;;;4998330;28;20118;-77
2023/06/28 08:21:23;;;;;;;5.20;1.48;;;22.70;78.60;;;;;;5015014;28;20364;-77
2023/06/28 08:23:48;;;;;;;4.38;1.40;;;22.70;75.60;;;;;;4998442;28;20368;-78
2023/06/28 08:26:14;;;;;;;4.95;1.33;;;22.80;74.00;;;;;;5015762;28;20029;-77
2023/06/28 08:28:40;;;;;;;3.90;1.35;;;22.80;73.10;;;;;;4998467;28;20026;-79
2023/06/28 08:31:06;;;;;;;4.15;1.40;;;22.80;73.70;;;;;;5016160;28;20073;-81
2023/06/28 08:33:31;;;;;;;3.47;1.75;;;22.80;75.20;;;;;;5015975;28;20459;-79
2023/06/28 08:35:57;;;;;;;6.25;1.80;;;22.80;74.50;;;;;;4998399;28;20028;-79
2023/06/28 08:38:23;;;;;;;4.95;1.42;;;22.70;73.60;;;;;;5015531;28;20030;-79
2023/06/28 08:40:48;;;;;;;4.63;1.63;;;22.70;74.10;;;;;;4998284;28;20452;-79
2023/06/28 08:43:16;;;;;;;6.65;1.70;;;22.70;74.00;;;;;;4997732;28;20459;-80
2023/06/28 08:45:44;;;;;;;5.25;1.60;;;22.70;74.10;;;;;;4998243;28;20121;-80
2023/06/28 08:48:12;;;;;;;3.67;1.30;;;22.70;74.40;;;;;;4997472;28;20407;-80
2023/06/28 08:50:39;;;;;;;6.03;1.60;;;22.70;74.00;;;;;;4997443;28;20030;-79
2023/06/28 08:53:09;;;;;;;5.72;1.83;;;22.60;75.10;;;;;;4998417;28;20026;-79
2023/06/28 08:55:36;;;;;;;4.20;1.40;;;22.50;75.10;;;;;;4998647;28;20033;-79
2023/06/28 08:58:05;;;;;;;9.70;4.82;;;22.50;75.50;;;;;;5015835;28;20018;-80
2023/06/28 09:00:30;;;;;;;13.88;6.85;;;22.40;74.70;;;;;;4997789;28;20029;-80
2023/06/28 09:02:56;;;;;;;4.85;2.28;;;22.40;74.30;;;;;;4998423;28;20368;-80
2023/06/28 09:05:22;;;;;;;3.15;1.30;;;22.30;74.40;;;;;;4997438;28;20100;-80
2023/06/28 09:07:53;;;;;;;2.80;1.40;;;22.30;74.00;;;;;;4998785;28;20030;-79
2023/06/28 09:10:19;;;;;;;3.63;1.60;;;22.30;74.30;;;;;;4997750;28;20558;-80
2023/06/28 09:12:52;;;;;;;4.55;1.50;;;22.40;74.40;;;;;;4998233;28;20515;-80
2023/06/28 09:15:21;;;;;;;3.70;1.35;;;22.40;73.90;;;;;;4997669;28;20474;-80
2023/06/28 09:17:47;;;;;;;5.40;1.63;;;22.40;73.60;;;;;;5015480;28;20382;-80
2023/06/28 09:20:17;;;;;;;2.53;1.15;;;22.50;73.40;;;;;;5014694;28;20025;-80
2023/06/28 09:22:42;;;;;;;5.90;1.77;;;22.60;72.70;;;;;;4998019;28;20032;-78
2023/06/28 09:25:08;;;;;;;3.00;1.27;;;22.70;72.20;;;;;;4997875;28;20034;-80
2023/06/28 09:27:34;;;;;;;3.70;1.25;;;22.90;71.60;;;;;;5015381;28;20034;-79
2023/06/28 09:30:00;;;;;;;5.10;1.63;;;22.90;70.20;;;;;;4997755;28;20116;-79
2023/06/28 09:32:39;;;;;;;8.35;1.48;;;22.90;69.30;;;;;;4997346;28;20100;-80
2023/06/28 09:35:10;;;;;;;2.70;1.10;;;23.00;68.80;;;;;;5014841;28;20105;-79
2023/06/28 09:37:38;;;;;;;6.93;1.27;;;23.00;68.00;;;;;;5015257;28;20100;-79
2023/06/28 09:40:06;;;;;;;6.43;1.45;;;23.10;67.80;;;;;;5014933;28;20025;-80
2023/06/28 09:42:31;;;;;;;8.75;1.42;;;23.10;68.10;;;;;;5014634;28;20025;-80
2023/06/28 09:44:57;;;;;;;2.15;1.30;;;23.10;68.70;;;;;;4997649;28;20030;-79
2023/06/28 09:47:32;;;;;;;2.45;1.13;;;23.00;68.60;;;;;;5014425;28;20028;-78
2023/06/28 09:50:01;;;;;;;2.83;1.42;;;23.20;68.70;;;;;;5014446;28;20107;-80
2023/06/28 09:52:26;;;;;;;3.25;1.20;;;23.30;68.50;;;;;;4996894;28;20048;-80
2023/06/28 09:54:52;;;;;;;4.50;1.27;;;23.30;68.10;;;;;;5014789;28;20112;-79
2023/06/28 09:57:18;;;;;;;4.32;1.20;;;23.40;68.90;;;;;;5014349;28;20052;-80
2023/06/28 09:59:45;;;;;;;7.28;1.70;;;23.50;69.00;;;;;;4997384;28;20029;-80
2023/06/28 10:02:16;;;;;;;4.88;1.60;;;23.60;68.80;;;;;;4996908;28;20120;-84
2023/06/28 10:04:42;;;;;;;3.35;1.38;;;23.60;68.90;;;;;;5014818;28;20038;-80
2023/06/28 10:07:11;;;;;;;2.33;1.33;;;23.80;69.10;;;;;;5014781;28;20486;-80
2023/06/28 10:09:41;;;;;;;3.60;1.17;;;23.90;69.30;;;;;;4997055;28;20033;-80
2023/06/28 10:12:11;;;;;;;7.15;1.40;;;23.90;68.90;;;;;;4997139;28;20116;-79
2023/06/28 10:14:40;;;;;;;5.07;1.42;;;23.90;69.30;;;;;;4997352;28;20076;-80
2023/06/28 10:17:08;;;;;;;5.63;1.52;;;23.80;69.40;;;;;;4997004;28;20029;-80
2023/06/28 10:19:34;;;;;;;3.47;1.60;;;23.80;69.80;;;;;;5013030;28;20037;-79
2023/06/28 10:22:00;;;;;;;3.35;1.70;;;23.80;69.80;;;;;;5010090;28;20028;-79
2023/06/28 10:24:31;;;;;;;8.07;1.67;;;23.70;69.40;;;;;;5025850;28;20040;-79
2023/06/28 10:26:59;;;;;;;4.70;1.33;;;23.70;69.40;;;;;;5013567;28;20060;-79
2023/06/28 10:29:24;;;;;;;3.80;1.70;;;23.80;69.30;;;;;;5028383;28;20068;-78
2023/06/28 10:31:51;;;;;;;4.75;1.60;;;23.80;68.70;;;;;;5016275;28;20057;-79
2023/06/28 10:34:17;;;;;;;6.90;1.42;;;23.80;68.30;;;;;;5008878;28;20026;-78
2023/06/28 10:36:43;;;;;;;6.43;1.70;;;23.90;68.00;;;;;;5003976;28;20049;-80
2023/06/28 10:39:09;;;;;;;4.75;1.38;;;24.10;67.80;;;;;;5026242;28;20173;-80
2023/06/28 10:41:35;;;;;;;5.32;2.35;;;24.30;67.80;;;;;;4998373;28;20026;-78
2023/06/28 10:44:03;;;;;;;6.03;1.60;;;24.30;67.60;;;;;;5011588;28;20030;-77
2023/06/28 10:46:28;;;;;;;5.00;1.70;;;24.30;67.20;;;;;;5020013;28;20387;-78
2023/06/28 10:48:56;;;;;;;3.47;1.30;;;24.50;67.20;;;;;;5021214;28;20042;-78
2023/06/28 10:51:25;;;;;;;3.72;1.67;;;24.60;66.30;;;;;;5027234;28;20017;-80
2023/06/28 10:53:53;;;;;;;4.43;1.45;;;24.70;66.00;;;;;;5016684;28;20040;-78
2023/06/28 10:56:20;;;;;;;6.38;1.45;;;24.80;65.80;;;;;;5008822;28;20052;-79
2023/06/28 10:58:52;;;;;;;3.03;1.38;;;24.80;65.60;;;;;;5005441;28;20030;-79
2023/06/28 11:01:49;;;;;;;6.68;1.42;;;24.80;64.90;;;;;;5015315;28;20118;-79
2023/06/28 11:04:16;;;;;;;3.88;1.35;;;25.00;65.10;;;;;;4975530;28;20054;-78
2023/06/28 11:06:42;;;;;;;5.50;1.65;;;25.20;64.80;;;;;;5011739;28;20056;-79
2023/06/28 11:09:14;;;;;;;4.30;1.38;;;25.30;63.80;;;;;;5001835;28;20075;-80
2023/06/28 11:11:56;;;;;;;4.32;1.55;;;25.30;62.80;;;;;;5011099;28;20057;-78
2023/06/28 11:14:30;;;;;;;4.07;1.67;;;25.40;63.70;;;;;;5000894;28;20053;-79
2023/06/28 11:17:12;;;;;;;4.07;1.63;;;25.20;64.00;;;;;;5012773;28;20079;-78
2023/06/28 11:19:39;;;;;;;4.35;1.45;;;25.30;64.50;;;;;;5004425;28;20109;-78
2023/06/28 11:22:05;;;;;;;3.88;1.30;;;25.40;64.90;;;;;;5034929;28;20017;-80
2023/06/28 11:24:34;;;;;;;5.35;1.55;;;25.50;64.90;;;;;;5008570;28;20065;-79
2023/06/28 11:27:00;;;;;;;5.82;1.80;;;25.60;64.40;;;;;;5009779;28;20038;-81
2023/06/28 11:29:26;;;;;;;4.78;1.58;;;25.60;64.00;;;;;;5034706;28;20079;-82
2023/06/28 11:31:55;;;;;;;6.13;1.38;;;25.50;64.20;;;;;;5019246;28;20051;-81
2023/06/28 11:34:21;;;;;;;3.75;1.20;;;25.60;63.90;;;;;;5008157;28;20119;-81
2023/06/28 11:36:51;;;;;;;6.95;1.60;;;25.60;64.00;;;;;;5011584;28;20049;-80
2023/06/28 11:39:18;;;;;;;4.28;1.15;;;25.80;63.90;;;;;;5032945;28;20118;-79
2023/06/28 11:41:44;;;;;;;2.88;1.23;;;25.90;63.70;;;;;;5004615;28;20026;-79
2023/06/28 11:44:12;;;;;;;3.95;1.90;;;26.00;63.20;;;;;;5016504;28;20076;-80
2023/06/28 11:46:38;;;;;;;3.88;1.42;;;26.10;63.30;;;;;;5027013;28;20056;-80
2023/06/28 11:49:03;;;;;;;3.08;1.20;;;26.20;62.90;;;;;;5026153;28;20042;-79
2023/06/28 11:51:31;;;;;;;4.63;1.33;;;26.30;62.40;;;;;;5016416;28;20079;-78
2023/06/28 11:53:56;;;;;;;3.80;1.60;;;26.30;63.10;;;;;;5022770;28;20025;-79
2023/06/28 11:56:38;;;;;;;2.95;1.33;;;26.40;63.00;;;;;;5014400;28;20355;-81
2023/06/28 11:59:15;;;;;;;2.50;1.33;;;26.40;62.30;;;;;;5031325;28;20421;-82
2023/06/28 12:01:41;;;;;;;2.55;1.13;;;26.40;61.60;;;;;;5005469;28;20485;-82
2023/06/28 12:04:18;;;;;;;3.03;1.25;;;26.30;62.40;;;;;;5017442;28;20062;-83
2023/06/28 12:06:44;;;;;;;3.28;1.20;;;26.20;62.20;;;;;;5011201;28;20029;-82
2023/06/28 12:09:24;;;;;;;3.15;1.30;;;26.20;62.20;;;;;;5008819;28;20029;-80
2023/06/28 12:11:54;;;;;;;4.53;1.17;;;26.10;62.30;;;;;;5036085;28;20029;-82
2023/06/28 12:14:24;;;;;;;3.80;1.23;;;26.10;62.40;;;;;;5001395;28;20168;-83
2023/06/28 12:16:50;;;;;;;3.63;1.50;;;26.30;62.50;;;;;;5012120;28;20477;-82
2023/06/28 12:19:17;;;;;;;4.28;1.33;;;26.40;62.20;;;;;;5024791;28;20026;-80
2023/06/28 12:21:43;;;;;;;2.70;1.25;;;26.30;62.20;;;;;;5017744;28;20113;-79
2023/06/28 12:24:24;;;;;;;3.28;1.30;;;26.50;62.40;;;;;;5017954;28;20117;-80
2023/06/28 12:26:56;;;;;;;1.92;1.30;;;26.50;61.50;;;;;;5008610;28;20510;-81
2023/06/28 12:29:23;;;;;;;3.03;1.08;;;26.50;61.80;;;;;;5002834;28;20033;-79
2023/06/28 12:31:53;;;;;;;4.53;1.70;;;26.50;61.20;;;;;;5016272;28;20021;-78
2023/06/28 12:34:27;;;;;;;5.05;1.38;;;26.50;62.10;;;;;;5017114;28;20045;-79
2023/06/28 12:36:58;;;;;;;1.98;1.15;;;26.50;61.80;;;;;;5023957;28;20045;-80
2023/06/28 12:39:26;;;;;;;3.08;1.10;;;26.50;61.50;;;;;;5012895;28;20111;-80
2023/06/28 12:42:05;;;;;;;3.58;1.42;;;26.50;61.40;;;;;;4999157;28;20034;-80
2023/06/28 12:44:50;;;;;;;4.32;1.17;;;26.50;61.70;;;;;;5022948;28;20029;-80
2023/06/28 12:47:19;;;;;;;4.45;1.20;;;26.50;62.20;;;;;;5035516;28;20494;-80